Time;durP1;ratioP1;P1;durP2;ratioP2;P2;SDS_P1;SDS_P2;PMS_P1;PMS_P2;Temp;Humidity;BMP_temperature;BMP_pressure;BME280_temperature;BME280_humidity;BME280_pressure;Samples;Min_cycle;Max_cycle;Signal;HPM_P1;HPM_P2
2023/07/02 00:01:11;;;;;;;6.70;6.10;;;16.30;99.90;;;;;;5112874;28;20199;-87
2023/07/02 00:03:40;;;;;;;9.20;7.10;;;16.30;99.90;;;;;;5093867;28;20622;-86
2023/07/02 00:06:06;;;;;;;11.20;6.97;;;16.30;99.90;;;;;;5094419;28;20187;-86
2023/07/02 00:08:32;;;;;;;7.67;6.27;;;16.30;99.90;;;;;;5094229;28;20193;-87
2023/07/02 00:10:57;;;;;;;6.97;6.17;;;16.30;99.90;;;;;;5099147;28;20180;-87
2023/07/02 00:13:24;;;;;;;7.70;6.77;;;16.40;99.90;;;;;;5081114;28;20169;-87
2023/07/02 00:15:50;;;;;;;7.23;6.53;;;16.40;99.90;;;;;;5117263;27;20179;-86
2023/07/02 00:18:16;;;;;;;8.87;7.17;;;16.40;99.90;;;;;;5118371;27;20196;-87
2023/07/02 00:20:41;;;;;;;10.27;7.23;;;16.50;99.90;;;;;;5118506;27;20180;-86
2023/07/02 00:23:10;;;;;;;9.87;6.87;;;16.50;99.90;;;;;;5117780;27;20645;-89
2023/07/02 00:25:36;;;;;;;10.13;6.57;;;16.50;99.90;;;;;;5137111;27;20183;-87
2023/07/02 00:28:03;;;;;;;15.00;6.97;;;16.50;99.90;;;;;;5117639;27;20709;-87
2023/07/02 00:30:29;;;;;;;8.57;7.03;;;16.50;99.90;;;;;;5137096;27;20174;-88
2023/07/02 00:32:55;;;;;;;9.37;7.00;;;16.60;99.90;;;;;;5117786;27;20172;-87
2023/07/02 00:35:22;;;;;;;8.90;7.60;;;16.60;99.90;;;;;;5136920;27;20172;-87
2023/07/02 00:37:49;;;;;;;10.07;7.17;;;16.50;99.90;;;;;;5117895;27;20192;-87
2023/07/02 00:40:15;;;;;;;9.77;6.37;;;16.50;99.90;;;;;;5118015;27;20172;-87
2023/07/02 00:42:40;;;;;;;9.33;7.37;;;16.50;99.90;;;;;;5124750;27;20681;-86
2023/07/02 00:45:07;;;;;;;15.03;7.90;;;16.40;99.90;;;;;;5131121;27;20196;-87
2023/07/02 00:47:34;;;;;;;11.40;7.63;;;16.50;99.90;;;;;;5107029;27;20199;-86
2023/07/02 00:50:01;;;;;;;8.97;7.23;;;16.50;99.90;;;;;;5117922;27;20641;-86
2023/07/02 00:52:27;;;;;;;13.60;7.80;;;16.50;99.90;;;;;;5117752;27;20179;-87
2023/07/02 00:54:53;;;;;;;10.07;7.17;;;16.50;99.90;;;;;;5117844;27;20570;-88
2023/07/02 00:57:19;;;;;;;10.53;7.17;;;16.50;99.90;;;;;;5083048;28;20207;-87
2023/07/02 00:59:45;;;;;;;12.23;7.80;;;16.50;99.90;;;;;;5097038;28;20192;-86
2023/07/02 01:02:12;;;;;;;9.87;7.43;;;16.50;99.90;;;;;;5115202;28;20260;-86
2023/07/02 01:04:39;;;;;;;11.67;8.13;;;16.50;99.90;;;;;;5097206;28;20184;-86
2023/07/02 01:07:09;;;;;;;10.77;8.20;;;16.50;99.90;;;;;;5115144;28;20279;-86
2023/07/02 01:09:35;;;;;;;9.73;8.13;;;16.40;99.90;;;;;;5097428;28;20204;-87
2023/07/02 01:12:05;;;;;;;10.17;8.23;;;16.40;99.90;;;;;;5097122;28;20211;-87
2023/07/02 01:14:37;;;;;;;9.03;7.30;;;16.40;99.90;;;;;;5115321;28;20168;-86
2023/07/02 01:17:04;;;;;;;10.70;7.90;;;16.50;99.90;;;;;;5115159;28;20200;-86
2023/07/02 01:19:45;;;;;;;10.97;9.03;;;16.40;99.90;;;;;;5096822;28;20193;-87
2023/07/02 01:22:12;;;;;;;9.57;8.37;;;16.40;99.90;;;;;;5096779;28;20264;-86
2023/07/02 01:24:39;;;;;;;12.57;9.27;;;16.30;99.90;;;;;;5096549;28;20212;-86
2023/07/02 01:27:05;;;;;;;14.10;7.60;;;16.40;99.90;;;;;;5096123;28;20258;-87
2023/07/02 01:29:31;;;;;;;10.93;7.87;;;16.30;99.90;;;;;;5131255;27;20177;-87
2023/07/02 01:31:57;;;;;;;17.03;7.67;;;16.30;99.90;;;;;;5096596;28;20173;-86
2023/07/02 01:34:23;;;;;;;9.10;6.93;;;16.30;99.90;;;;;;5096526;28;20646;-87
2023/07/02 01:36:48;;;;;;;12.13;7.90;;;16.30;99.90;;;;;;5107890;27;20291;-86
2023/07/02 01:39:15;;;;;;;8.07;7.27;;;16.20;99.90;;;;;;5115554;27;20598;-86
2023/07/02 01:41:54;;;;;;;9.17;7.67;;;16.20;99.90;;;;;;5119590;27;20180;-86
2023/07/02 01:44:21;;;;;;;10.43;7.90;;;16.20;99.90;;;;;;5117004;27;20199;-87
2023/07/02 01:46:50;;;;;;;13.17;8.07;;;16.20;99.90;;;;;;5134832;27;20708;-87
2023/07/02 01:49:17;;;;;;;13.07;8.63;;;16.10;99.90;;;;;;5116962;27;20172;-87
2023/07/02 01:51:53;;;;;;;12.63;8.27;;;16.10;99.90;;;;;;5135402;27;20176;-88
2023/07/02 01:54:20;;;;;;;9.97;7.90;;;16.10;99.90;;;;;;5117101;27;20175;-87
2023/07/02 01:56:45;;;;;;;12.93;9.07;;;16.10;99.90;;;;;;5135061;27;20204;-87
2023/07/02 01:59:12;;;;;;;14.73;8.30;;;16.10;99.90;;;;;;5116708;27;20176;-87
2023/07/02 02:01:40;;;;;;;10.50;8.73;;;16.10;99.90;;;;;;5116319;27;20176;-87
2023/07/02 02:04:11;;;;;;;13.17;8.73;;;16.00;99.90;;;;;;5110186;28;20182;-87
2023/07/02 02:06:38;;;;;;;16.97;10.23;;;16.00;99.90;;;;;;5096603;28;20196;-87
2023/07/02 02:09:04;;;;;;;11.47;8.43;;;16.00;99.90;;;;;;5096371;28;20276;-87
2023/07/02 02:11:31;;;;;;;13.17;8.93;;;16.00;99.90;;;;;;5114909;28;20256;-88
2023/07/02 02:13:57;;;;;;;14.83;9.13;;;16.00;99.90;;;;;;5095967;28;20172;-87
2023/07/02 02:16:24;;;;;;;11.23;9.23;;;16.00;99.90;;;;;;5096390;28;20188;-87
2023/07/02 02:18:53;;;;;;;15.00;8.63;;;16.00;99.90;;;;;;5114741;28;20188;-87
2023/07/02 02:21:19;;;;;;;15.23;9.73;;;15.90;99.90;;;;;;5114740;28;20172;-87
2023/07/02 02:23:45;;;;;;;13.57;9.10;;;15.90;99.90;;;;;;5114591;28;20172;-86
2023/07/02 02:26:11;;;;;;;13.73;9.47;;;15.80;99.90;;;;;;5097881;28;20173;-87
2023/07/02 02:28:36;;;;;;;14.40;9.57;;;15.70;99.90;;;;;;5095675;28;20291;-87
2023/07/02 02:31:02;;;;;;;14.47;9.63;;;15.70;99.90;;;;;;5095627;28;20172;-87
2023/07/02 02:33:30;;;;;;;15.60;10.40;;;15.60;99.90;;;;;;5112788;28;20333;-86
2023/07/02 02:35:56;;;;;;;19.77;10.83;;;15.50;99.90;;;;;;5114312;28;20549;-87
2023/07/02 02:38:21;;;;;;;14.23;9.80;;;15.50;99.90;;;;;;5096161;28;20207;-87
2023/07/02 02:40:47;;;;;;;14.00;10.40;;;15.50;99.90;;;;;;5114225;28;20267;-87
2023/07/02 02:43:12;;;;;;;17.60;10.90;;;15.40;99.90;;;;;;5095856;28;20183;-87
2023/07/02 02:45:39;;;;;;;17.87;10.70;;;15.30;99.90;;;;;;5095959;28;20263;-86
2023/07/02 02:48:05;;;;;;;11.03;9.53;;;15.30;99.90;;;;;;5096520;28;20254;-87
2023/07/02 02:50:31;;;;;;;18.80;11.37;;;15.30;99.90;;;;;;5096878;28;20603;-87
2023/07/02 02:52:57;;;;;;;20.03;11.50;;;15.20;99.90;;;;;;5096678;28;20626;-86
2023/07/02 02:55:22;;;;;;;17.33;11.03;;;15.20;99.90;;;;;;5096399;28;20184;-87
2023/07/02 02:57:48;;;;;;;15.30;11.07;;;15.10;99.90;;;;;;5101257;27;20541;-87
2023/07/02 03:00:16;;;;;;;20.33;11.43;;;15.10;99.90;;;;;;5122473;27;20192;-86
2023/07/02 03:02:43;;;;;;;16.17;10.80;;;15.10;99.90;;;;;;5121915;27;20543;-86
2023/07/02 03:05:08;;;;;;;18.10;10.83;;;15.00;99.90;;;;;;5143147;27;20722;-86
2023/07/02 03:07:35;;;;;;;18.00;10.90;;;15.00;99.90;;;;;;5142512;27;20414;-86
2023/07/02 03:10:01;;;;;;;16.20;11.80;;;15.00;99.90;;;;;;5119465;27;20351;-86
2023/07/02 03:12:27;;;;;;;18.47;11.80;;;15.00;99.90;;;;;;5116060;27;20184;-86
2023/07/02 03:14:55;;;;;;;17.97;12.00;;;15.00;99.90;;;;;;5115949;27;20172;-87
2023/07/02 03:17:21;;;;;;;21.13;12.27;;;15.00;99.90;;;;;;5115334;27;20199;-87
2023/07/02 03:19:48;;;;;;;21.10;13.23;;;15.00;99.90;;;;;;5098152;27;20207;-87
2023/07/02 03:22:14;;;;;;;25.20;13.57;;;15.00;99.90;;;;;;5133730;27;20594;-86
2023/07/02 03:24:41;;;;;;;19.87;13.07;;;15.00;99.90;;;;;;5114624;27;20510;-88
2023/07/02 03:27:07;;;;;;;19.57;13.40;;;15.10;99.90;;;;;;5131366;27;20299;-86
2023/07/02 03:29:35;;;;;;;18.77;14.27;;;15.10;99.90;;;;;;5115118;28;20199;-87
2023/07/02 03:32:01;;;;;;;23.03;14.20;;;15.20;99.90;;;;;;5114946;27;20175;-87
2023/07/02 03:34:26;;;;;;;21.53;13.60;;;15.30;99.90;;;;;;5115059;28;20168;-88
2023/07/02 03:36:52;;;;;;;25.23;14.47;;;15.30;99.90;;;;;;5133413;27;20321;-87
2023/07/02 03:39:18;;;;;;;24.00;13.47;;;15.40;99.90;;;;;;5133178;27;20176;-87
2023/07/02 03:41:44;;;;;;;19.37;13.20;;;15.40;99.90;;;;;;5114515;28;20263;-86
2023/07/02 03:44:10;;;;;;;19.80;12.60;;;15.50;99.90;;;;;;5116300;27;20665;-86
2023/07/02 03:46:36;;;;;;;19.57;14.33;;;15.50;99.90;;;;;;5119271;27;20294;-87
2023/07/02 03:49:03;;;;;;;18.40;12.47;;;15.60;99.90;;;;;;5137392;27;20679;-86
2023/07/02 03:51:29;;;;;;;17.70;13.57;;;15.60;99.90;;;;;;5119104;27;20175;-86
2023/07/02 03:53:55;;;;;;;20.30;12.90;;;15.70;99.90;;;;;;5140566;27;20176;-86
2023/07/02 03:56:20;;;;;;;21.13;12.90;;;15.70;99.90;;;;;;5138113;27;20180;-86
2023/07/02 03:58:46;;;;;;;24.60;13.13;;;15.70;99.90;;;;;;5127644;27;20239;-86
2023/07/02 04:01:12;;;;;;;16.87;12.37;;;15.70;99.90;;;;;;5081306;28;20220;-87
2023/07/02 04:03:38;;;;;;;27.50;14.00;;;15.70;99.90;;;;;;5098441;28;20181;-87
2023/07/02 04:06:09;;;;;;;19.83;13.43;;;15.70;99.90;;;;;;5097977;28;20233;-86
2023/07/02 04:08:35;;;;;;;24.13;14.27;;;15.70;99.90;;;;;;5098296;28;20276;-87
2023/07/02 04:11:00;;;;;;;24.70;14.70;;;15.70;99.90;;;;;;5098453;28;20400;-88
2023/07/02 04:13:26;;;;;;;24.67;14.67;;;15.80;99.90;;;;;;5116773;28;20165;-86
2023/07/02 04:15:51;;;;;;;24.60;15.30;;;15.80;99.90;;;;;;5116835;28;20665;-86
2023/07/02 04:18:17;;;;;;;30.13;14.67;;;15.80;99.90;;;;;;5116190;28;20686;-86
2023/07/02 04:20:43;;;;;;;24.97;14.33;;;15.80;99.90;;;;;;5081781;28;20184;-86
2023/07/02 04:23:11;;;;;;;22.40;14.80;;;15.80;99.90;;;;;;5116242;28;20553;-86
2023/07/02 04:25:37;;;;;;;28.20;15.03;;;15.90;99.90;;;;;;5085918;27;20180;-86
2023/07/02 04:28:03;;;;;;;23.67;14.27;;;15.90;99.90;;;;;;5136735;27;20215;-86
2023/07/02 04:30:28;;;;;;;22.10;14.37;;;15.90;99.90;;;;;;5101149;27;20176;-87
2023/07/02 04:32:54;;;;;;;26.87;15.33;;;15.90;99.90;;;;;;5117807;27;20183;-86
2023/07/02 04:35:20;;;;;;;28.07;15.47;;;15.90;99.90;;;;;;5136321;27;20176;-86
2023/07/02 04:37:45;;;;;;;28.80;15.80;;;15.90;99.90;;;;;;5121033;27;20224;-87
2023/07/02 04:40:11;;;;;;;26.77;14.50;;;16.00;99.90;;;;;;5118040;27;20615;-86
2023/07/02 04:42:38;;;;;;;28.27;15.60;;;16.00;99.90;;;;;;5117155;27;20192;-86
2023/07/02 04:45:05;;;;;;;22.27;14.53;;;16.00;99.90;;;;;;5101108;27;20191;-86
2023/07/02 04:47:31;;;;;;;25.77;16.00;;;16.00;99.90;;;;;;5117703;27;20257;-86
2023/07/02 04:49:57;;;;;;;22.97;15.60;;;16.00;99.90;;;;;;5117841;27;20263;-86
2023/07/02 04:52:23;;;;;;;26.60;15.97;;;16.10;99.90;;;;;;5136357;27;20196;-86
2023/07/02 04:54:49;;;;;;;34.03;16.17;;;16.20;99.90;;;;;;5101816;28;20662;-87
2023/07/02 04:57:15;;;;;;;22.40;14.57;;;16.30;99.90;;;;;;5097321;28;20689;-87
2023/07/02 04:59:44;;;;;;;24.57;15.73;;;16.30;99.90;;;;;;5097314;28;20188;-87
2023/07/02 05:02:10;;;;;;;31.00;16.80;;;16.40;99.90;;;;;;5115809;28;20566;-86
2023/07/02 05:04:39;;;;;;;26.17;16.53;;;16.50;99.90;;;;;;5097826;28;20184;-86
2023/07/02 05:07:05;;;;;;;29.00;16.17;;;16.50;99.90;;;;;;5096844;28;20589;-87
2023/07/02 05:09:31;;;;;;;32.20;16.23;;;16.50;99.90;;;;;;5097635;28;20181;-86
2023/07/02 05:11:57;;;;;;;33.03;17.63;;;16.60;99.90;;;;;;5097374;28;20674;-87
2023/07/02 05:14:23;;;;;;;26.80;17.47;;;16.60;99.90;;;;;;5115353;28;20650;-87
2023/07/02 05:16:49;;;;;;;31.20;16.83;;;16.80;99.90;;;;;;5097032;28;20207;-87
2023/07/02 05:19:15;;;;;;;26.97;16.43;;;16.90;99.90;;;;;;5096483;28;20188;-87
2023/07/02 05:21:40;;;;;;;33.07;16.97;;;17.00;99.90;;;;;;5112266;27;20267;-87
2023/07/02 05:24:07;;;;;;;29.73;17.33;;;17.10;99.90;;;;;;5117360;27;20578;-88
2023/07/02 05:26:33;;;;;;;32.70;16.83;;;17.20;99.90;;;;;;5120070;27;20224;-86
2023/07/02 05:29:01;;;;;;;25.60;16.20;;;17.20;99.90;;;;;;5126079;27;20179;-87
2023/07/02 05:31:27;;;;;;;24.30;15.40;;;17.20;99.90;;;;;;5118779;27;20652;-87
2023/07/02 05:33:54;;;;;;;27.13;15.97;;;17.20;99.90;;;;;;5118029;27;20168;-87
2023/07/02 05:36:20;;;;;;;31.47;17.83;;;17.20;99.90;;;;;;5135666;27;20183;-87
2023/07/02 05:38:46;;;;;;;28.77;16.67;;;17.30;99.90;;;;;;5135048;27;20574;-87
2023/07/02 05:41:18;;;;;;;29.80;16.27;;;17.30;99.90;;;;;;5116916;27;20197;-87
2023/07/02 05:43:44;;;;;;;30.33;16.73;;;17.40;99.90;;;;;;5116656;27;20180;-88
2023/07/02 05:46:09;;;;;;;31.97;16.23;;;17.40;99.90;;;;;;5117293;27;20172;-87
2023/07/02 05:48:35;;;;;;;27.50;14.00;;;17.40;99.90;;;;;;5129929;27;20195;-87
2023/07/02 05:51:04;;;;;;;25.70;17.13;;;17.30;99.90;;;;;;5096207;28;20282;-87
2023/07/02 05:53:30;;;;;;;30.87;16.50;;;17.30;99.90;;;;;;5096985;28;20558;-87
2023/07/02 05:55:56;;;;;;;30.53;17.00;;;17.40;99.90;;;;;;5114841;28;20175;-88
2023/07/02 05:58:21;;;;;;;29.30;16.33;;;17.40;99.90;;;;;;5114851;28;20192;-87
2023/07/02 06:00:49;;;;;;;30.43;15.60;;;17.40;99.90;;;;;;5096984;28;20727;-86
2023/07/02 06:03:21;;;;;;;20.30;15.37;;;17.50;99.90;;;;;;5097706;28;20180;-86
2023/07/02 06:05:50;;;;;;;30.10;16.20;;;17.50;99.90;;;;;;5120083;28;20184;-86
2023/07/02 06:08:16;;;;;;;31.00;17.00;;;17.60;99.90;;;;;;5114602;28;20213;-87
2023/07/02 06:10:46;;;;;;;30.73;18.93;;;17.60;99.90;;;;;;5096318;28;20653;-87
2023/07/02 06:13:12;;;;;;;31.03;17.03;;;17.80;99.90;;;;;;5095959;28;20185;-86
2023/07/02 06:15:37;;;;;;;34.10;16.70;;;17.90;99.90;;;;;;5095587;27;20183;-87
2023/07/02 06:18:05;;;;;;;31.47;17.23;;;17.90;99.90;;;;;;5096323;28;20193;-86
2023/07/02 06:20:31;;;;;;;32.93;18.03;;;17.90;99.90;;;;;;5095950;27;20187;-86
2023/07/02 06:22:57;;;;;;;37.67;18.97;;;17.90;99.90;;;;;;5095685;28;20173;-87
2023/07/02 06:25:23;;;;;;;34.97;16.07;;;17.90;99.90;;;;;;5079760;28;20185;-86
2023/07/02 06:27:48;;;;;;;30.40;17.87;;;17.90;99.90;;;;;;5095653;28;20205;-86
2023/07/02 06:30:14;;;;;;;30.20;18.00;;;18.10;99.90;;;;;;5095969;28;20615;-86
2023/07/02 06:32:41;;;;;;;30.27;17.57;;;18.30;99.90;;;;;;5096350;28;20184;-86
2023/07/02 06:35:08;;;;;;;31.50;18.73;;;18.50;99.90;;;;;;5114497;28;20181;-90
2023/07/02 06:37:34;;;;;;;25.23;15.07;;;18.60;99.90;;;;;;5096223;28;20192;-88
2023/07/02 06:40:01;;;;;;;34.93;18.67;;;18.60;99.90;;;;;;5095780;28;20551;-86
2023/07/02 06:42:26;;;;;;;29.47;15.70;;;18.70;99.90;;;;;;5096076;28;20177;-86
2023/07/02 06:44:52;;;;;;;30.17;17.03;;;18.90;99.90;;;;;;5095717;28;20656;-89
2023/07/02 06:47:17;;;;;;;30.27;16.37;;;18.90;99.90;;;;;;5102055;23;20589;-72
2023/07/02 06:49:43;;;;;;;29.10;16.70;;;19.00;99.90;;;;;;5064576;28;20226;-72
2023/07/02 06:52:09;;;;;;;29.10;16.73;;;19.10;99.90;;;;;;5051412;28;20177;-71
2023/07/02 06:54:35;;;;;;;28.97;16.70;;;19.10;99.90;;;;;;5050020;28;20232;-72
2023/07/02 06:57:01;;;;;;;28.63;17.00;;;18.90;99.90;;;;;;5051320;28;20174;-71
2023/07/02 06:59:26;;;;;;;25.57;15.10;;;18.90;99.90;;;;;;5051355;28;20289;-71
2023/07/02 07:01:52;;;;;;;252.47;37.07;;;18.90;99.90;;;;;;5051919;28;20274;-71
2023/07/02 07:04:18;;;;;;;31.00;15.27;;;18.80;99.90;;;;;;5051377;28;20175;-72
2023/07/02 07:06:44;;;;;;;24.00;14.50;;;18.80;99.90;;;;;;5051902;28;20225;-72
2023/07/02 07:09:10;;;;;;;32.20;16.30;;;18.90;99.90;;;;;;5051576;28;20224;-72
2023/07/02 07:11:35;;;;;;;30.87;14.63;;;19.10;99.90;;;;;;5051663;28;20178;-72
2023/07/02 07:14:01;;;;;;;22.57;14.53;;;19.20;99.90;;;;;;5049755;28;20235;-72
2023/07/02 07:16:27;;;;;;;28.13;15.00;;;19.30;99.90;;;;;;5051405;28;20206;-72
2023/07/02 07:18:52;;;;;;;26.37;14.30;;;19.40;99.90;;;;;;5050157;28;20526;-72
2023/07/02 07:21:18;;;;;;;20.83;13.17;;;19.50;99.90;;;;;;5051439;28;20207;-72
2023/07/02 07:23:43;;;;;;;25.97;14.73;;;19.60;99.90;;;;;;5051546;28;20672;-72
2023/07/02 07:26:09;;;;;;;24.43;14.20;;;19.80;99.90;;;;;;5051358;28;20232;-73
2023/07/02 07:28:35;;;;;;;30.43;13.87;;;20.00;99.90;;;;;;5051419;28;20341;-72
2023/07/02 07:31:01;;;;;;;24.77;14.00;;;20.30;99.90;;;;;;5049502;28;20276;-71
2023/07/02 07:33:26;;;;;;;29.83;15.20;;;20.50;99.90;;;;;;5050958;28;20162;-71
2023/07/02 07:35:52;;;;;;;25.97;15.17;;;20.50;99.90;;;;;;5050858;28;20224;-68
2023/07/02 07:38:18;;;;;;;24.63;13.40;;;20.60;99.90;;;;;;5051067;28;20163;-71
2023/07/02 07:40:44;;;;;;;21.27;14.10;;;20.80;99.90;;;;;;5050930;28;20313;-71
2023/07/02 07:43:09;;;;;;;23.43;13.80;;;20.90;99.90;;;;;;5050620;28;20175;-71
2023/07/02 07:45:35;;;;;;;22.03;14.30;;;21.00;99.90;;;;;;5050790;28;20209;-71
2023/07/02 07:48:01;;;;;;;24.40;13.73;;;21.10;99.90;;;;;;5049356;28;20301;-71
2023/07/02 07:50:27;;;;;;;22.55;13.27;;;21.20;99.90;;;;;;5050753;28;20211;-71
2023/07/02 07:52:53;;;;;;;25.98;14.68;;;21.20;99.90;;;;;;5050603;28;20209;-71
2023/07/02 07:55:18;;;;;;;30.23;13.73;;;21.10;99.90;;;;;;5050746;28;20250;-71
2023/07/02 07:57:44;;;;;;;23.57;12.93;;;21.20;99.90;;;;;;5049559;28;20174;-72
2023/07/02 08:00:11;;;;;;;29.35;13.93;;;21.20;99.90;;;;;;5049519;28;20198;-70
2023/07/02 08:02:36;;;;;;;23.60;14.07;;;21.30;99.90;;;;;;5050730;28;20653;-70
2023/07/02 08:05:02;;;;;;;22.50;12.37;;;21.30;99.90;;;;;;5050494;28;20174;-70
2023/07/02 08:07:28;;;;;;;20.25;11.93;;;21.30;99.90;;;;;;5050711;28;20203;-69
2023/07/02 08:09:54;;;;;;;21.55;14.70;;;21.30;99.90;;;;;;5050461;28;20189;-68
2023/07/02 08:12:19;;;;;;;30.45;13.95;;;21.50;99.90;;;;;;5050323;28;20237;-71
2023/07/02 08:14:45;;;;;;;24.17;13.15;;;21.60;99.90;;;;;;5048636;28;20175;-69
2023/07/02 08:17:10;;;;;;;20.63;13.30;;;21.60;99.90;;;;;;5050461;28;20250;-70
2023/07/02 08:19:36;;;;;;;19.10;12.18;;;21.60;99.90;;;;;;5050452;28;20202;-71
2023/07/02 08:22:02;;;;;;;24.05;12.90;;;21.90;99.90;;;;;;5050535;28;20838;-70
2023/07/02 08:24:30;;;;;;;22.55;11.75;;;22.30;99.90;;;;;;5050183;28;20191;-71
2023/07/02 08:26:56;;;;;;;21.83;11.98;;;22.40;99.90;;;;;;5050336;28;20197;-70
2023/07/02 08:29:21;;;;;;;20.20;13.45;;;22.30;99.90;;;;;;5049366;28;20698;-70
2023/07/02 08:31:47;;;;;;;19.90;11.93;;;21.90;99.90;;;;;;5053507;28;20245;-70
2023/07/02 08:34:12;;;;;;;26.50;12.82;;;21.70;99.90;;;;;;5052634;28;20175;-70
2023/07/02 08:36:38;;;;;;;20.10;11.45;;;21.60;99.90;;;;;;5054121;28;20272;-70
2023/07/02 08:39:04;;;;;;;23.47;12.37;;;21.40;99.90;;;;;;5053865;28;20262;-71
2023/07/02 08:41:31;;;;;;;20.85;12.35;;;21.30;99.90;;;;;;5052715;28;20195;-70
2023/07/02 08:43:58;;;;;;;24.70;12.82;;;21.20;99.90;;;;;;5053275;28;20233;-70
2023/07/02 08:46:24;;;;;;;27.08;12.85;;;21.30;99.90;;;;;;5054215;28;20413;-69
2023/07/02 08:48:49;;;;;;;27.13;12.70;;;21.10;99.90;;;;;;5053629;28;20240;-69
2023/07/02 08:51:15;;;;;;;25.35;12.48;;;21.20;99.90;;;;;;5053614;28;20677;-70
2023/07/02 08:53:41;;;;;;;18.85;10.68;;;21.80;99.90;;;;;;5053515;28;20591;-69
2023/07/02 08:56:06;;;;;;;25.33;11.55;;;22.30;99.90;;;;;;5053576;28;20221;-70
2023/07/02 08:58:32;;;;;;;21.38;10.27;;;22.90;99.90;;;;;;5054173;28;20187;-69
2023/07/02 09:01:05;;;;;;;15.38;11.20;;;23.40;99.90;;;;;;5052807;28;20577;-69
2023/07/02 09:03:31;;;;;;;22.15;12.02;;;23.80;99.90;;;;;;5052005;28;20653;-69
2023/07/02 09:05:58;;;;;;;24.67;12.25;;;24.00;99.90;;;;;;5053443;28;20256;-69
2023/07/02 09:08:27;;;;;;;22.20;11.88;;;23.70;99.90;;;;;;5051185;28;20285;-70
2023/07/02 09:10:53;;;;;;;22.45;12.75;;;23.30;99.90;;;;;;5053060;28;20187;-70
2023/07/02 09:13:19;;;;;;;20.55;12.05;;;23.10;99.90;;;;;;5053002;28;20185;-70
2023/07/02 09:15:45;;;;;;;21.13;12.02;;;22.80;99.90;;;;;;5053344;28;20705;-69
2023/07/02 09:18:21;;;;;;;23.80;12.20;;;22.90;99.90;;;;;;5051963;28;20178;-69
2023/07/02 09:20:59;;;;;;;19.33;13.13;;;22.80;99.90;;;;;;5053115;28;20190;-69
2023/07/02 09:23:35;;;;;;;50.95;16.05;;;22.90;99.90;;;;;;5052968;28;20174;-69
2023/07/02 09:26:01;;;;;;;21.13;11.48;;;22.80;99.90;;;;;;5052474;28;20175;-69
2023/07/02 09:28:26;;;;;;;20.80;12.02;;;22.90;99.90;;;;;;5053170;28;20199;-69
2023/07/02 09:30:56;;;;;;;17.75;11.50;;;23.30;99.90;;;;;;5052896;28;20191;-69
2023/07/02 09:33:27;;;;;;;18.08;12.75;;;24.00;99.90;;;;;;5052647;28;20171;-70
2023/07/02 09:35:53;;;;;;;21.42;12.52;;;24.00;99.90;;;;;;5051615;28;20276;-69
2023/07/02 09:38:19;;;;;;;19.50;12.05;;;24.40;99.90;;;;;;5052690;28;20174;-69
2023/07/02 09:40:50;;;;;;;19.02;12.27;;;24.50;99.90;;;;;;5050768;28;20676;-68
2023/07/02 09:43:17;;;;;;;22.92;12.95;;;24.10;99.90;;;;;;5052699;28;20204;-70
2023/07/02 09:45:47;;;;;;;20.80;13.05;;;23.60;99.90;;;;;;5052905;28;20175;-68
2023/07/02 09:48:15;;;;;;;23.20;13.80;;;22.80;99.90;;;;;;5052587;28;20683;-69
2023/07/02 09:50:46;;;;;;;21.40;12.30;;;22.00;99.90;;;;;;5051586;28;20256;-70
2023/07/02 09:53:12;;;;;;;18.38;11.35;;;21.70;99.90;;;;;;5051996;28;20167;-70
2023/07/02 09:55:47;;;;;;;23.80;14.40;;;21.50;99.90;;;;;;5051670;28;20256;-70
2023/07/02 09:58:14;;;;;;;20.70;12.77;;;21.40;99.90;;;;;;5052096;28;20174;-69
2023/07/02 10:00:40;;;;;;;20.45;11.93;;;21.50;99.90;;;;;;5052521;28;20222;-70
2023/07/02 10:03:06;;;;;;;20.23;11.85;;;21.70;99.90;;;;;;5050340;28;20696;-68
2023/07/02 10:05:33;;;;;;;23.90;12.18;;;22.10;99.90;;;;;;5052386;28;20174;-70
2023/07/02 10:08:13;;;;;;;19.58;11.98;;;22.20;99.90;;;;;;5050137;28;20225;-70
2023/07/02 10:10:39;;;;;;;17.48;11.75;;;22.40;99.90;;;;;;5051506;28;20224;-71
2023/07/02 10:13:04;;;;;;;23.15;14.98;;;22.40;99.90;;;;;;5050855;28;20194;-70
2023/07/02 10:15:37;;;;;;;32.22;14.35;;;22.40;99.90;;;;;;5049124;28;20182;-69
2023/07/02 10:18:04;;;;;;;19.45;12.60;;;22.10;99.90;;;;;;5052023;28;20171;-70
2023/07/02 10:20:38;;;;;;;24.27;11.93;;;21.80;99.90;;;;;;5052074;28;20244;-69
2023/07/02 10:23:06;;;;;;;18.95;12.98;;;21.70;99.90;;;;;;5051640;28;20265;-70
2023/07/02 10:25:34;;;;;;;22.20;13.40;;;21.50;99.90;;;;;;5051794;28;20174;-72
2023/07/02 10:28:01;;;;;;;19.13;12.30;;;21.60;99.90;;;;;;5050585;28;20225;-71
2023/07/02 10:30:45;;;;;;;15.77;11.23;;;21.70;99.90;;;;;;5051781;28;20222;-70
2023/07/02 10:33:13;;;;;;;23.27;12.93;;;22.20;99.90;;;;;;5051438;28;20523;-71
2023/07/02 10:35:44;;;;;;;20.00;12.73;;;22.90;99.90;;;;;;5051565;28;20167;-70
2023/07/02 10:38:24;;;;;;;20.10;12.32;;;23.60;99.90;;;;;;5051858;28;20612;-69
2023/07/02 10:40:57;;;;;;;16.88;12.00;;;24.40;99.90;;;;;;5051458;28;20534;-70
2023/07/02 10:43:28;;;;;;;21.48;11.95;;;25.20;99.90;;;;;;5050573;28;20181;-70
2023/07/02 10:45:54;;;;;;;24.92;13.40;;;25.60;99.90;;;;;;5050235;28;20540;-69
2023/07/02 10:48:20;;;;;;;23.90;11.60;;;24.80;99.90;;;;;;5048389;28;20223;-69
2023/07/02 10:50:46;;;;;;;16.50;10.98;;;24.30;99.90;;;;;;5051507;28;20240;-67
2023/07/02 10:53:16;;;;;;;14.07;9.88;;;24.00;99.90;;;;;;5049291;28;20225;-70
2023/07/02 10:55:42;;;;;;;20.08;11.38;;;23.70;99.90;;;;;;5050285;28;20171;-70
2023/07/02 10:58:09;;;;;;;19.27;10.98;;;23.20;99.90;;;;;;5050284;28;20291;-71
2023/07/02 11:00:45;;;;;;;17.65;10.57;;;23.10;99.90;;;;;;5050106;28;20199;-69
2023/07/02 11:03:19;;;;;;;26.10;12.27;;;23.30;99.90;;;;;;5050907;28;20189;-69
2023/07/02 11:05:45;;;;;;;46.30;19.45;;;23.80;99.90;;;;;;5051324;28;20673;-71
2023/07/02 11:08:10;;;;;;;15.70;11.80;;;24.40;99.90;;;;;;5051222;28;20229;-68
2023/07/02 11:10:36;;;;;;;22.63;11.88;;;24.40;99.90;;;;;;5051251;28;20186;-70
2023/07/02 11:13:16;;;;;;;18.92;10.55;;;24.30;99.90;;;;;;5050460;28;20162;-70
2023/07/02 11:15:42;;;;;;;25.20;11.90;;;24.00;99.90;;;;;;5049968;28;20576;-70
2023/07/02 11:18:12;;;;;;;18.08;11.00;;;23.70;99.90;;;;;;5049942;28;20615;-67
2023/07/02 11:20:40;;;;;;;25.52;12.20;;;23.10;99.90;;;;;;5048141;28;20225;-70
2023/07/02 11:23:17;;;;;;;21.58;11.82;;;22.30;99.90;;;;;;5050695;28;20209;-70
2023/07/02 11:25:53;;;;;;;19.23;10.97;;;21.70;99.90;;;;;;5051207;28;20179;-71
2023/07/02 11:28:19;;;;;;;23.23;10.98;;;21.30;99.90;;;;;;5051130;28;20232;-70
2023/07/02 11:30:47;;;;;;;17.17;10.37;;;21.30;99.90;;;;;;5049378;28;20611;-71
2023/07/02 11:33:13;;;;;;;21.40;11.70;;;21.60;99.90;;;;;;5050676;28;20178;-70
2023/07/02 11:35:38;;;;;;;20.30;10.57;;;22.00;99.90;;;;;;5051185;28;20541;-71
2023/07/02 11:38:04;;;;;;;22.27;10.70;;;22.20;99.90;;;;;;5050995;28;20245;-70
2023/07/02 11:40:30;;;;;;;18.17;10.00;;;22.50;99.90;;;;;;5051161;28;20602;-71
2023/07/02 11:42:55;;;;;;;20.08;11.20;;;22.80;99.90;;;;;;5050571;28;20181;-71
2023/07/02 11:45:21;;;;;;;18.90;9.48;;;23.20;99.90;;;;;;5050723;28;20649;-71
2023/07/02 11:47:46;;;;;;;22.98;10.90;;;23.70;99.90;;;;;;5050849;28;20264;-71
2023/07/02 11:50:12;;;;;;;16.50;9.95;;;24.20;99.90;;;;;;5051277;28;20248;-71
2023/07/02 11:52:38;;;;;;;17.85;9.85;;;24.30;99.90;;;;;;5048884;28;20171;-71
2023/07/02 11:55:04;;;;;;;16.70;9.18;;;24.60;99.90;;;;;;5050695;28;20175;-70
2023/07/02 11:57:29;;;;;;;16.90;8.73;;;24.70;99.90;;;;;;5049230;28;20179;-70
2023/07/02 11:59:55;;;;;;;224.75;82.32;;;24.90;99.90;;;;;;5050961;28;20204;-69
2023/07/02 12:02:21;;;;;;;17.45;9.32;;;24.70;99.90;;;;;;5050619;28;20341;-70
2023/07/02 12:04:47;;;;;;;11.32;7.78;;;24.70;99.90;;;;;;5049814;28;20186;-71
2023/07/02 12:07:15;;;;;;;16.58;8.20;;;24.50;99.90;;;;;;5053308;28;20206;-71
2023/07/02 12:09:41;;;;;;;14.07;7.47;;;24.40;99.90;;;;;;5053458;28;20217;-71
2023/07/02 12:12:07;;;;;;;14.65;7.47;;;24.80;99.90;;;;;;5053103;28;20178;-71
2023/07/02 12:14:32;;;;;;;12.90;8.40;;;24.80;99.90;;;;;;5054416;28;20178;-70
2023/07/02 12:16:58;;;;;;;53.17;9.57;;;24.80;99.90;;;;;;5053011;28;20642;-71
2023/07/02 12:19:23;;;;;;;10.70;7.28;;;24.70;99.90;;;;;;5054464;28;20167;-69
2023/07/02 12:21:49;;;;;;;11.60;8.23;;;24.60;99.90;;;;;;5054398;28;20167;-71
2023/07/02 12:24:15;;;;;;;121.00;33.60;;;24.60;99.90;;;;;;5052927;28;20186;-70
2023/07/02 12:26:41;;;;;;;25.23;9.90;;;24.40;99.90;;;;;;5052929;28;20199;-70
2023/07/02 12:29:06;;;;;;;171.18;27.38;;;24.30;99.90;;;;;;5054178;28;20819;-71